Hartford, Connecticut
Current Conditions -  °F | °C
As of 8:53 PM on Sunday 25 Jan 2015 (Local Time) from KHFD Reporting Station
Clear Clear  
Wind Chill: 15°   Ceiling: Unl
Heat Index: 23°   Visibility: 10mi
Dew Point:   Wind: 7mph
Humidity: 37%   Direction: 330°NNW
Pressure: 30"   Gusts: NA
Location:  41.76°N, 72.67°W
Report Text: KHFD 260153Z 33006KT 10SM CLR M05/M18 A3000 RMK AO2 SLP157 T10501178
Loading
Personal Weather Stations






























Interactive Weather Map New forecast layout! Learn more

10-Day Weather Forecast

Advertisements
Track Severe Weather on mobile